sensor_id;sensor_type;location;lat;lon;timestamp;pressure;altitude;pressure_sealevel;temperature;humidity
31092;BME280;67728;53.122;12.776;2023-05-15T00:00:51;100433.47;;;10.81;80.84
31092;BME280;67728;53.122;12.776;2023-05-15T00:02:22;100433.50;;;10.80;80.69
31092;BME280;67728;53.122;12.776;2023-05-15T00:03:53;100434.19;;;10.88;80.36
31092;BME280;67728;53.122;12.776;2023-05-15T00:05:25;100431.66;;;10.87;80.77
31092;BME280;67728;53.122;12.776;2023-05-15T00:06:57;100434.94;;;10.95;81.16
31092;BME280;67728;53.122;12.776;2023-05-15T00:08:30;100421.56;;;10.73;80.59
31092;BME280;67728;53.122;12.776;2023-05-15T00:10:02;100421.41;;;10.80;80.76
31092;BME280;67728;53.122;12.776;2023-05-15T00:11:32;100418.66;;;10.45;80.69
31092;BME280;67728;53.122;12.776;2023-05-15T00:13:04;100417.47;;;10.61;81.24
31092;BME280;67728;53.122;12.776;2023-05-15T00:14:34;100413.31;;;10.53;81.10
31092;BME280;67728;53.122;12.776;2023-05-15T00:16:06;100414.34;;;10.44;81.20
31092;BME280;67728;53.122;12.776;2023-05-15T00:17:37;100413.38;;;10.50;81.39
31092;BME280;67728;53.122;12.776;2023-05-15T00:19:09;100411.81;;;10.43;81.48
31092;BME280;67728;53.122;12.776;2023-05-15T00:20:41;100409.88;;;10.52;81.46
31092;BME280;67728;53.122;12.776;2023-05-15T00:22:12;100407.25;;;10.54;81.19
31092;BME280;67728;53.122;12.776;2023-05-15T00:23:45;100409.00;;;10.52;81.67
31092;BME280;67728;53.122;12.776;2023-05-15T00:25:17;100399.28;;;10.63;81.33
31092;BME280;67728;53.122;12.776;2023-05-15T00:26:48;100411.25;;;10.70;80.96
31092;BME280;67728;53.122;12.776;2023-05-15T00:28:20;100408.94;;;10.55;81.44
31092;BME280;67728;53.122;12.776;2023-05-15T00:29:52;100406.34;;;10.55;81.09
31092;BME280;67728;53.122;12.776;2023-05-15T00:31:22;100406.34;;;10.56;80.81
31092;BME280;67728;53.122;12.776;2023-05-15T00:32:54;100400.34;;;10.53;81.35
31092;BME280;67728;53.122;12.776;2023-05-15T00:34:25;100398.84;;;10.41;81.44
31092;BME280;67728;53.122;12.776;2023-05-15T00:35:56;100398.63;;;10.52;81.75
31092;BME280;67728;53.122;12.776;2023-05-15T00:37:27;100395.91;;;10.58;81.02
31092;BME280;67728;53.122;12.776;2023-05-15T00:39:00;100397.00;;;10.48;81.33
31092;BME280;67728;53.122;12.776;2023-05-15T00:40:33;100396.88;;;10.54;80.55
31092;BME280;67728;53.122;12.776;2023-05-15T00:42:06;100397.81;;;10.51;80.88
31092;BME280;67728;53.122;12.776;2023-05-15T00:43:39;100395.53;;;10.35;81.60
31092;BME280;67728;53.122;12.776;2023-05-15T00:45:12;100393.66;;;10.41;81.31
31092;BME280;67728;53.122;12.776;2023-05-15T00:46:44;100390.91;;;10.50;81.35
31092;BME280;67728;53.122;12.776;2023-05-15T00:48:17;100385.81;;;10.46;80.97
31092;BME280;67728;53.122;12.776;2023-05-15T00:49:52;100389.28;;;10.45;81.53
31092;BME280;67728;53.122;12.776;2023-05-15T00:51:23;100389.44;;;10.36;80.81
31092;BME280;67728;53.122;12.776;2023-05-15T00:52:55;100386.72;;;10.43;81.25
31092;BME280;67728;53.122;12.776;2023-05-15T00:54:28;100382.59;;;10.33;81.41
31092;BME280;67728;53.122;12.776;2023-05-15T00:55:59;100381.66;;;10.37;82.50
31092;BME280;67728;53.122;12.776;2023-05-15T00:57:33;100376.44;;;10.39;81.79
31092;BME280;67728;53.122;12.776;2023-05-15T00:59:06;100378.03;;;10.46;81.62
31092;BME280;67728;53.122;12.776;2023-05-15T01:00:37;100372.06;;;10.42;82.38
31092;BME280;67728;53.122;12.776;2023-05-15T01:02:10;100384.78;;;10.53;81.36
31092;BME280;67728;53.122;12.776;2023-05-15T01:03:41;100381.19;;;10.60;81.59
31092;BME280;67728;53.122;12.776;2023-05-15T01:05:13;100377.59;;;10.67;81.41
31092;BME280;67728;53.122;12.776;2023-05-15T01:06:45;100370.69;;;10.66;80.72
31092;BME280;67728;53.122;12.776;2023-05-15T01:08:20;100367.91;;;10.75;81.04
31092;BME280;67728;53.122;12.776;2023-05-15T01:09:55;100369.75;;;10.70;81.11
31092;BME280;67728;53.122;12.776;2023-05-15T01:11:28;100367.28;;;10.62;81.25
31092;BME280;67728;53.122;12.776;2023-05-15T01:13:06;100365.59;;;10.61;80.88
31092;BME280;67728;53.122;12.776;2023-05-15T01:14:38;100362.16;;;10.61;81.40
31092;BME280;67728;53.122;12.776;2023-05-15T01:16:10;100364.84;;;10.56;81.38
31092;BME280;67728;53.122;12.776;2023-05-15T01:17:42;100363.28;;;10.48;81.82
31092;BME280;67728;53.122;12.776;2023-05-15T01:19:12;100362.41;;;10.49;81.79
31092;BME280;67728;53.122;12.776;2023-05-15T01:21:09;100362.38;;;10.50;81.42
31092;BME280;67728;53.122;12.776;2023-05-15T01:22:57;100359.81;;;10.49;81.84
31092;BME280;67728;53.122;12.776;2023-05-15T01:24:47;100357.78;;;10.63;80.76
31092;BME280;67728;53.122;12.776;2023-05-15T01:28:38;100352.47;;;10.69;80.71
31092;BME280;67728;53.122;12.776;2023-05-15T01:30:17;100356.72;;;10.73;81.64
31092;BME280;67728;53.122;12.776;2023-05-15T01:31:50;100350.69;;;10.71;81.28
31092;BME280;67728;53.122;12.776;2023-05-15T01:33:25;100354.13;;;10.71;80.67
31092;BME280;67728;53.122;12.776;2023-05-15T01:35:05;100356.09;;;10.62;81.85
31092;BME280;67728;53.122;12.776;2023-05-15T01:36:44;100350.84;;;10.65;82.10
31092;BME280;67728;53.122;12.776;2023-05-15T01:38:22;100354.25;;;10.65;82.37
31092;BME280;67728;53.122;12.776;2023-05-15T01:39:59;100356.84;;;10.67;81.86
31092;BME280;67728;53.122;12.776;2023-05-15T01:41:34;100351.59;;;10.68;81.68
31092;BME280;67728;53.122;12.776;2023-05-15T01:43:07;100354.88;;;10.76;81.04
31092;BME280;67728;53.122;12.776;2023-05-15T01:44:45;100360.31;;;10.66;82.38
31092;BME280;67728;53.122;12.776;2023-05-15T01:46:22;100358.75;;;10.59;81.92
31092;BME280;67728;53.122;12.776;2023-05-15T01:47:53;100351.94;;;10.53;81.58
31092;BME280;67728;53.122;12.776;2023-05-15T01:49:27;100350.28;;;10.51;82.20
31092;BME280;67728;53.122;12.776;2023-05-15T01:51:02;100347.75;;;10.48;82.18
31092;BME280;67728;53.122;12.776;2023-05-15T01:52:36;100349.34;;;10.52;81.75
31092;BME280;67728;53.122;12.776;2023-05-15T01:54:09;100342.38;;;10.55;81.75
31092;BME280;67728;53.122;12.776;2023-05-15T01:55:42;100348.38;;;10.57;81.68
31092;BME280;67728;53.122;12.776;2023-05-15T01:57:13;100343.06;;;10.65;81.67
31092;BME280;67728;53.122;12.776;2023-05-15T01:58:45;100341.16;;;10.73;81.85
31092;BME280;67728;53.122;12.776;2023-05-15T02:00:21;100332.31;;;10.80;81.56
31092;BME280;67728;53.122;12.776;2023-05-15T02:01:53;100340.06;;;10.81;81.30
31092;BME280;67728;53.122;12.776;2023-05-15T02:03:25;100337.94;;;10.62;81.37
31092;BME280;67728;53.122;12.776;2023-05-15T02:04:57;100338.53;;;10.33;82.12
31092;BME280;67728;53.122;12.776;2023-05-15T02:06:29;100327.66;;;10.16;82.27
31092;BME280;67728;53.122;12.776;2023-05-15T02:08:02;100333.38;;;10.32;82.28
31092;BME280;67728;53.122;12.776;2023-05-15T02:09:35;100328.63;;;10.52;82.00
31092;BME280;67728;53.122;12.776;2023-05-15T02:11:07;100324.03;;;10.64;81.08
31092;BME280;67728;53.122;12.776;2023-05-15T02:12:40;100325.72;;;10.67;81.22
31092;BME280;67728;53.122;12.776;2023-05-15T02:14:13;100322.16;;;10.71;81.03
31092;BME280;67728;53.122;12.776;2023-05-15T02:15:47;100320.22;;;10.79;80.61
31092;BME280;67728;53.122;12.776;2023-05-15T02:17:21;100318.88;;;10.63;81.01
31092;BME280;67728;53.122;12.776;2023-05-15T02:18:52;100309.94;;;10.36;82.05
31092;BME280;67728;53.122;12.776;2023-05-15T02:20:24;100306.97;;;10.11;82.03
31092;BME280;67728;53.122;12.776;2023-05-15T02:21:54;100309.94;;;9.93;82.68
31092;BME280;67728;53.122;12.776;2023-05-15T02:23:26;100316.19;;;9.82;82.95
31092;BME280;67728;53.122;12.776;2023-05-15T02:24:57;100317.09;;;9.81;83.29
31092;BME280;67728;53.122;12.776;2023-05-15T02:26:35;100312.84;;;9.77;83.27
31092;BME280;67728;53.122;12.776;2023-05-15T02:28:16;100310.28;;;9.75;83.42
31092;BME280;67728;53.122;12.776;2023-05-15T02:30:02;100312.78;;;9.80;83.44
31092;BME280;67728;53.122;12.776;2023-05-15T02:31:46;100304.69;;;9.96;83.00
31092;BME280;67728;53.122;12.776;2023-05-15T02:33:24;100297.28;;;9.77;82.05
31092;BME280;67728;53.122;12.776;2023-05-15T02:35:04;100294.66;;;9.80;81.77
31092;BME280;67728;53.122;12.776;2023-05-15T02:36:40;100298.03;;;9.83;81.57
31092;BME280;67728;53.122;12.776;2023-05-15T02:38:15;100298.91;;;9.84;81.92
31092;BME280;67728;53.122;12.776;2023-05-15T02:39:47;100294.09;;;9.64;81.88
31092;BME280;67728;53.122;12.776;2023-05-15T02:41:23;100291.41;;;9.69;81.96
31092;BME280;67728;53.122;12.776;2023-05-15T02:42:55;100297.59;;;9.60;82.12
31092;BME280;67728;53.122;12.776;2023-05-15T02:44:28;100297.47;;;9.68;81.92
31092;BME280;67728;53.122;12.776;2023-05-15T02:46:00;100295.56;;;9.77;81.90
31092;BME280;67728;53.122;12.776;2023-05-15T02:47:35;100288.19;;;9.56;81.73
31092;BME280;67728;53.122;12.776;2023-05-15T02:49:07;100288.31;;;9.50;81.65
31092;BME280;67728;53.122;12.776;2023-05-15T02:50:40;100292.50;;;9.55;81.60
31092;BME280;67728;53.122;12.776;2023-05-15T02:52:12;100290.22;;;9.39;83.08
31092;BME280;67728;53.122;12.776;2023-05-15T02:53:43;100287.72;;;9.33;82.56
31092;BME280;67728;53.122;12.776;2023-05-15T02:55:15;100283.97;;;9.01;83.35
31092;BME280;67728;53.122;12.776;2023-05-15T02:56:46;100291.06;;;8.89;83.44
31092;BME280;67728;53.122;12.776;2023-05-15T02:58:17;100291.06;;;8.87;84.09
31092;BME280;67728;53.122;12.776;2023-05-15T02:59:49;100284.22;;;8.85;83.02
31092;BME280;67728;53.122;12.776;2023-05-15T03:01:19;100280.72;;;8.89;83.47
31092;BME280;67728;53.122;12.776;2023-05-15T03:02:52;100284.94;;;8.94;83.16
31092;BME280;67728;53.122;12.776;2023-05-15T03:04:23;100277.69;;;8.61;83.88
31092;BME280;67728;53.122;12.776;2023-05-15T03:05:55;100280.97;;;8.72;83.20
31092;BME280;67728;53.122;12.776;2023-05-15T03:07:25;100282.66;;;8.73;82.95
31092;BME280;67728;53.122;12.776;2023-05-15T03:08:57;100282.03;;;8.58;83.92
31092;BME280;67728;53.122;12.776;2023-05-15T03:10:29;100280.38;;;8.52;83.61
31092;BME280;67728;53.122;12.776;2023-05-15T03:11:59;100286.41;;;8.53;84.66
31092;BME280;67728;53.122;12.776;2023-05-15T03:13:31;100280.34;;;8.55;84.72
31092;BME280;67728;53.122;12.776;2023-05-15T03:15:03;100277.69;;;8.60;84.27
31092;BME280;67728;53.122;12.776;2023-05-15T03:16:34;100281.88;;;8.68;85.13
31092;BME280;67728;53.122;12.776;2023-05-15T03:18:09;100278.50;;;8.65;84.19
31092;BME280;67728;53.122;12.776;2023-05-15T03:19:41;100279.28;;;8.68;84.13
31092;BME280;67728;53.122;12.776;2023-05-15T03:21:12;100279.22;;;8.74;84.30
31092;BME280;67728;53.122;12.776;2023-05-15T03:22:43;100274.69;;;8.87;84.93
31092;BME280;67728;53.122;12.776;2023-05-15T03:24:14;100269.47;;;8.91;84.24
31092;BME280;67728;53.122;12.776;2023-05-15T03:25:46;100280.56;;;8.99;84.88
31092;BME280;67728;53.122;12.776;2023-05-15T03:27:18;100278.66;;;9.11;84.58
31092;BME280;67728;53.122;12.776;2023-05-15T03:28:49;100284.47;;;9.23;84.26
31092;BME280;67728;53.122;12.776;2023-05-15T03:30:21;100279.09;;;9.34;84.11
31092;BME280;67728;53.122;12.776;2023-05-15T03:31:53;100287.63;;;9.39;83.58
31092;BME280;67728;53.122;12.776;2023-05-15T03:33:25;100284.31;;;9.32;83.19
31092;BME280;67728;53.122;12.776;2023-05-15T03:34:57;100279.38;;;9.17;81.88
31092;BME280;67728;53.122;12.776;2023-05-15T03:36:28;100284.00;;;8.98;82.24
31092;BME280;67728;53.122;12.776;2023-05-15T03:38:00;100287.66;;;8.85;83.53
31092;BME280;67728;53.122;12.776;2023-05-15T03:39:32;100278.22;;;8.81;83.45
31092;BME280;67728;53.122;12.776;2023-05-15T03:41:03;100269.63;;;8.81;84.08
31092;BME280;67728;53.122;12.776;2023-05-15T03:42:34;100268.88;;;8.76;84.02
31092;BME280;67728;53.122;12.776;2023-05-15T03:44:06;100269.78;;;8.72;84.36
31092;BME280;67728;53.122;12.776;2023-05-15T03:45:38;100268.09;;;8.68;84.36
31092;BME280;67728;53.122;12.776;2023-05-15T03:47:09;100263.91;;;8.62;85.35
31092;BME280;67728;53.122;12.776;2023-05-15T03:48:41;100266.47;;;8.62;84.67
31092;BME280;67728;53.122;12.776;2023-05-15T03:50:13;100264.59;;;8.72;84.76
31092;BME280;67728;53.122;12.776;2023-05-15T03:51:45;100265.41;;;8.74;84.59
31092;BME280;67728;53.122;12.776;2023-05-15T03:53:16;100254.22;;;8.75;85.05
31092;BME280;67728;53.122;12.776;2023-05-15T03:54:47;100258.44;;;8.80;85.03
31092;BME280;67728;53.122;12.776;2023-05-15T03:56:19;100259.47;;;8.70;85.05
31092;BME280;67728;53.122;12.776;2023-05-15T03:57:50;100262.91;;;8.68;85.62
31092;BME280;67728;53.122;12.776;2023-05-15T03:59:21;100260.44;;;8.62;85.93
31092;BME280;67728;53.122;12.776;2023-05-15T04:00:53;100262.00;;;8.72;85.55
31092;BME280;67728;53.122;12.776;2023-05-15T04:02:24;100247.31;;;8.75;85.61
31092;BME280;67728;53.122;12.776;2023-05-15T04:03:56;100254.44;;;8.60;85.89
31092;BME280;67728;53.122;12.776;2023-05-15T04:05:28;100262.97;;;8.66;86.24
31092;BME280;67728;53.122;12.776;2023-05-15T04:07:00;100256.81;;;8.75;86.03
31092;BME280;67728;53.122;12.776;2023-05-15T04:08:32;100243.78;;;8.79;85.45
31092;BME280;67728;53.122;12.776;2023-05-15T04:10:05;100248.06;;;8.82;85.76
31092;BME280;67728;53.122;12.776;2023-05-15T04:11:35;100242.78;;;8.88;85.75
31092;BME280;67728;53.122;12.776;2023-05-15T04:13:07;100244.38;;;8.96;85.30
31092;BME280;67728;53.122;12.776;2023-05-15T04:14:39;100237.41;;;9.01;85.42
31092;BME280;67728;53.122;12.776;2023-05-15T04:16:10;100250.88;;;9.20;85.30
31092;BME280;67728;53.122;12.776;2023-05-15T04:17:41;100245.66;;;9.23;84.78
31092;BME280;67728;53.122;12.776;2023-05-15T04:19:14;100245.50;;;9.32;84.33
31092;BME280;67728;53.122;12.776;2023-05-15T04:20:45;100241.09;;;9.37;84.08
31092;BME280;67728;53.122;12.776;2023-05-15T04:22:16;100244.69;;;9.27;84.34
31092;BME280;67728;53.122;12.776;2023-05-15T04:23:48;100242.03;;;9.32;84.80
31092;BME280;67728;53.122;12.776;2023-05-15T04:25:19;100236.69;;;9.41;83.88
31092;BME280;67728;53.122;12.776;2023-05-15T04:26:51;100239.41;;;9.35;83.88
31092;BME280;67728;53.122;12.776;2023-05-15T04:28:22;100238.44;;;9.40;83.87
31092;BME280;67728;53.122;12.776;2023-05-15T04:29:53;100232.56;;;9.31;84.79
31092;BME280;67728;53.122;12.776;2023-05-15T04:31:25;100235.09;;;9.34;84.90
31092;BME280;67728;53.122;12.776;2023-05-15T04:32:57;100232.41;;;9.38;85.13
31092;BME280;67728;53.122;12.776;2023-05-15T04:34:30;100224.69;;;9.37;85.52
31092;BME280;67728;53.122;12.776;2023-05-15T04:36:02;100223.81;;;9.38;85.36
31092;BME280;67728;53.122;12.776;2023-05-15T04:37:33;100220.19;;;9.46;84.58
31092;BME280;67728;53.122;12.776;2023-05-15T04:39:04;100215.88;;;9.47;84.39
31092;BME280;67728;53.122;12.776;2023-05-15T04:40:36;100215.81;;;9.50;84.55
31092;BME280;67728;53.122;12.776;2023-05-15T04:42:07;100207.03;;;9.57;84.87
31092;BME280;67728;53.122;12.776;2023-05-15T04:43:38;100208.47;;;9.72;84.44
31092;BME280;67728;53.122;12.776;2023-05-15T04:45:10;100207.44;;;9.80;84.20
31092;BME280;67728;53.122;12.776;2023-05-15T04:46:42;100204.69;;;9.89;84.31
31092;BME280;67728;53.122;12.776;2023-05-15T04:48:14;100199.28;;;9.98;83.76
31092;BME280;67728;53.122;12.776;2023-05-15T04:49:48;100202.09;;;9.89;83.80
31092;BME280;67728;53.122;12.776;2023-05-15T04:51:19;100201.81;;;10.01;83.26
31092;BME280;67728;53.122;12.776;2023-05-15T04:52:51;100207.41;;;9.82;84.68
31092;BME280;67728;53.122;12.776;2023-05-15T04:54:23;100201.97;;;9.94;84.33
31092;BME280;67728;53.122;12.776;2023-05-15T04:55:54;100206.41;;;9.87;85.04
31092;BME280;67728;53.122;12.776;2023-05-15T04:57:26;100213.00;;;10.03;84.59
31092;BME280;67728;53.122;12.776;2023-05-15T04:58:58;100202.47;;;10.12;83.86
31092;BME280;67728;53.122;12.776;2023-05-15T05:00:30;100201.50;;;10.16;83.59
31092;BME280;67728;53.122;12.776;2023-05-15T05:02:02;100199.69;;;10.22;83.76
31092;BME280;67728;53.122;12.776;2023-05-15T05:03:33;100195.94;;;10.35;83.26
31092;BME280;67728;53.122;12.776;2023-05-15T05:05:07;100202.66;;;10.42;83.08
31092;BME280;67728;53.122;12.776;2023-05-15T05:06:38;100194.69;;;10.51;82.74
31092;BME280;67728;53.122;12.776;2023-05-15T05:08:10;100193.78;;;10.52;82.93
31092;BME280;67728;53.122;12.776;2023-05-15T05:09:42;100193.91;;;10.47;82.84
31092;BME280;67728;53.122;12.776;2023-05-15T05:11:13;100198.09;;;10.53;83.36
31092;BME280;67728;53.122;12.776;2023-05-15T05:12:45;100193.44;;;10.65;82.85
31092;BME280;67728;53.122;12.776;2023-05-15T05:14:16;100187.44;;;10.65;82.51
31092;BME280;67728;53.122;12.776;2023-05-15T05:15:48;100188.19;;;10.70;82.04
31092;BME280;67728;53.122;12.776;2023-05-15T05:17:20;100199.28;;;10.75;81.84
31092;BME280;67728;53.122;12.776;2023-05-15T05:18:52;100193.03;;;10.84;82.30
31092;BME280;67728;53.122;12.776;2023-05-15T05:20:25;100195.13;;;11.66;78.16
31092;BME280;67728;53.122;12.776;2023-05-15T05:21:56;100185.91;;;11.55;79.23
31092;BME280;67728;53.122;12.776;2023-05-15T05:23:30;100188.38;;;11.28;79.72
31092;BME280;67728;53.122;12.776;2023-05-15T05:25:02;100187.13;;;11.43;80.21
31092;BME280;67728;53.122;12.776;2023-05-15T05:26:33;100186.13;;;11.49;80.10
31092;BME280;67728;53.122;12.776;2023-05-15T05:28:05;100182.75;;;11.45;79.70
31092;BME280;67728;53.122;12.776;2023-05-15T05:29:37;100176.47;;;11.52;79.19
31092;BME280;67728;53.122;12.776;2023-05-15T05:31:09;100174.56;;;11.59;78.77
31092;BME280;67728;53.122;12.776;2023-05-15T05:32:40;100183.97;;;11.63;80.29
31092;BME280;67728;53.122;12.776;2023-05-15T05:34:12;100182.22;;;11.63;80.19
31092;BME280;67728;53.122;12.776;2023-05-15T05:35:44;100180.19;;;11.74;79.44
31092;BME280;67728;53.122;12.776;2023-05-15T05:37:16;100184.06;;;11.90;77.81
31092;BME280;67728;53.122;12.776;2023-05-15T05:38:48;100190.06;;;11.92;78.11
31092;BME280;67728;53.122;12.776;2023-05-15T05:40:19;100178.28;;;11.81;78.81
31092;BME280;67728;53.122;12.776;2023-05-15T05:41:51;100183.34;;;11.85;78.79
31092;BME280;67728;53.122;12.776;2023-05-15T05:43:24;100183.09;;;11.94;77.69
31092;BME280;67728;53.122;12.776;2023-05-15T05:44:56;100182.72;;;12.07;77.58
31092;BME280;67728;53.122;12.776;2023-05-15T05:46:28;100180.28;;;12.30;76.38
31092;BME280;67728;53.122;12.776;2023-05-15T05:47:59;100174.06;;;12.34;75.89
31092;BME280;67728;53.122;12.776;2023-05-15T05:49:31;100175.44;;;12.45;75.69
31092;BME280;67728;53.122;12.776;2023-05-15T05:51:03;100171.03;;;12.47;75.97
31092;BME280;67728;53.122;12.776;2023-05-15T05:52:35;100173.97;;;12.37;77.38
31092;BME280;67728;53.122;12.776;2023-05-15T05:54:05;100170.50;;;12.36;77.63
31092;BME280;67728;53.122;12.776;2023-05-15T05:55:37;100175.94;;;12.56;76.71
31092;BME280;67728;53.122;12.776;2023-05-15T05:57:09;100176.84;;;12.55;77.80
31092;BME280;67728;53.122;12.776;2023-05-15T05:58:39;100176.75;;;12.58;76.60
31092;BME280;67728;53.122;12.776;2023-05-15T06:00:12;100180.72;;;12.70;75.71
31092;BME280;67728;53.122;12.776;2023-05-15T06:01:44;100170.91;;;12.78;74.84
31092;BME280;67728;53.122;12.776;2023-05-15T06:03:16;100175.16;;;12.81;76.17
31092;BME280;67728;53.122;12.776;2023-05-15T06:04:47;100179.13;;;12.91;75.89
31092;BME280;67728;53.122;12.776;2023-05-15T06:06:20;100166.06;;;12.92;75.48
31092;BME280;67728;53.122;12.776;2023-05-15T06:07:53;100169.53;;;12.93;75.30
31092;BME280;67728;53.122;12.776;2023-05-15T06:09:24;100169.25;;;13.00;75.45
31092;BME280;67728;53.122;12.776;2023-05-15T06:10:56;100161.06;;;13.12;76.10
31092;BME280;67728;53.122;12.776;2023-05-15T06:12:28;100163.59;;;13.14;75.22
31092;BME280;67728;53.122;12.776;2023-05-15T06:13:59;100168.94;;;13.11;75.67
31092;BME280;67728;53.122;12.776;2023-05-15T06:15:31;100167.66;;;13.23;74.74
31092;BME280;67728;53.122;12.776;2023-05-15T06:17:03;100161.34;;;13.30;74.17
31092;BME280;67728;53.122;12.776;2023-05-15T06:18:35;100162.06;;;13.33;73.91
31092;BME280;67728;53.122;12.776;2023-05-15T06:20:08;100157.38;;;13.43;72.92
31092;BME280;67728;53.122;12.776;2023-05-15T06:21:42;100159.06;;;13.44;73.49
31092;BME280;67728;53.122;12.776;2023-05-15T06:23:13;100154.56;;;13.49;73.04
31092;BME280;67728;53.122;12.776;2023-05-15T06:24:44;100155.28;;;13.52;73.81
31092;BME280;67728;53.122;12.776;2023-05-15T06:26:16;100155.63;;;13.66;73.80
31092;BME280;67728;53.122;12.776;2023-05-15T06:27:48;100146.69;;;13.73;73.36
31092;BME280;67728;53.122;12.776;2023-05-15T06:29:20;100144.81;;;13.77;71.42
31092;BME280;67728;53.122;12.776;2023-05-15T06:30:51;100144.63;;;13.82;71.55
31092;BME280;67728;53.122;12.776;2023-05-15T06:32:23;100139.19;;;13.88;71.23
31092;BME280;67728;53.122;12.776;2023-05-15T06:33:55;100138.97;;;13.94;71.80
31092;BME280;67728;53.122;12.776;2023-05-15T06:35:27;100138.88;;;13.95;71.14
31092;BME280;67728;53.122;12.776;2023-05-15T06:37:00;100143.03;;;14.01;70.63
31092;BME280;67728;53.122;12.776;2023-05-15T06:38:31;100141.03;;;14.07;71.33
31092;BME280;67728;53.122;12.776;2023-05-15T06:40:04;100150.38;;;14.13;70.73
31092;BME280;67728;53.122;12.776;2023-05-15T06:41:36;100146.84;;;14.14;71.58
31092;BME280;67728;53.122;12.776;2023-05-15T06:43:08;100143.84;;;14.24;71.60
31092;BME280;67728;53.122;12.776;2023-05-15T06:44:39;100146.00;;;14.36;69.64
31092;BME280;67728;53.122;12.776;2023-05-15T06:46:11;100150.00;;;14.45;68.51
31092;BME280;67728;53.122;12.776;2023-05-15T06:47:45;100139.03;;;14.57;68.85
31092;BME280;67728;53.122;12.776;2023-05-15T06:49:17;100139.28;;;14.73;69.07
31092;BME280;67728;53.122;12.776;2023-05-15T06:50:48;100143.06;;;15.06;67.79
31092;BME280;67728;53.122;12.776;2023-05-15T06:52:22;100134.50;;;15.43;66.30
31092;BME280;67728;53.122;12.776;2023-05-15T06:53:53;100141.13;;;15.70;64.94
31092;BME280;67728;53.122;12.776;2023-05-15T06:55:25;100137.78;;;16.04;66.49
31092;BME280;67728;53.122;12.776;2023-05-15T06:56:56;100139.91;;;15.77;64.97
31092;BME280;67728;53.122;12.776;2023-05-15T06:58:28;100146.00;;;15.96;64.80
31092;BME280;67728;53.122;12.776;2023-05-15T07:00:00;100141.19;;;15.87;62.96
31092;BME280;67728;53.122;12.776;2023-05-15T07:01:31;100142.31;;;16.19;64.64
31092;BME280;67728;53.122;12.776;2023-05-15T07:03:03;100133.72;;;16.87;63.26
31092;BME280;67728;53.122;12.776;2023-05-15T07:04:35;100139.56;;;17.26;60.96
31092;BME280;67728;53.122;12.776;2023-05-15T07:06:07;100137.50;;;16.99;60.37
31092;BME280;67728;53.122;12.776;2023-05-15T07:07:40;100140.03;;;16.83;63.02
31092;BME280;67728;53.122;12.776;2023-05-15T07:09:12;100133.66;;;17.56;59.79
31092;BME280;67728;53.122;12.776;2023-05-15T07:10:43;100133.56;;;17.24;59.11
31092;BME280;67728;53.122;12.776;2023-05-15T07:12:15;100141.25;;;17.60;59.76
31092;BME280;67728;53.122;12.776;2023-05-15T07:13:46;100127.25;;;17.92;58.39
31092;BME280;67728;53.122;12.776;2023-05-15T07:15:18;100140.03;;;18.14;57.91
31092;BME280;67728;53.122;12.776;2023-05-15T07:16:50;100131.16;;;18.01;56.87
31092;BME280;67728;53.122;12.776;2023-05-15T07:18:21;100135.06;;;18.10;58.11
31092;BME280;67728;53.122;12.776;2023-05-15T07:19:53;100134.19;;;18.25;57.48
31092;BME280;67728;53.122;12.776;2023-05-15T07:21:25;100129.00;;;18.39;56.99
31092;BME280;67728;53.122;12.776;2023-05-15T07:22:58;100123.75;;;18.55;56.01
31092;BME280;67728;53.122;12.776;2023-05-15T07:24:29;100131.97;;;18.64;56.34
31092;BME280;67728;53.122;12.776;2023-05-15T07:26:01;100129.34;;;18.64;56.39
31092;BME280;67728;53.122;12.776;2023-05-15T07:27:33;100122.25;;;17.88;58.15
31092;BME280;67728;53.122;12.776;2023-05-15T07:29:04;100120.56;;;17.87;59.86
31092;BME280;67728;53.122;12.776;2023-05-15T07:30:36;100114.97;;;18.09;57.55
31092;BME280;67728;53.122;12.776;2023-05-15T07:32:08;100113.75;;;18.61;56.05
31092;BME280;67728;53.122;12.776;2023-05-15T07:33:39;100113.97;;;17.80;58.64
31092;BME280;67728;53.122;12.776;2023-05-15T07:35:11;100106.88;;;17.98;57.48
31092;BME280;67728;53.122;12.776;2023-05-15T07:36:42;100108.03;;;18.23;58.15
31092;BME280;67728;53.122;12.776;2023-05-15T07:38:15;100100.31;;;18.95;54.83
31092;BME280;67728;53.122;12.776;2023-05-15T07:39:47;100105.16;;;19.31;54.52
31092;BME280;67728;53.122;12.776;2023-05-15T07:41:19;100107.41;;;19.37;53.36
31092;BME280;67728;53.122;12.776;2023-05-15T07:42:51;100099.31;;;19.12;52.55
31092;BME280;67728;53.122;12.776;2023-05-15T07:44:22;100104.72;;;19.53;52.98
31092;BME280;67728;53.122;12.776;2023-05-15T07:45:54;100096.88;;;19.23;51.61
31092;BME280;67728;53.122;12.776;2023-05-15T07:47:26;100093.59;;;18.46;54.61
31092;BME280;67728;53.122;12.776;2023-05-15T07:48:57;100089.66;;;19.27;54.33
31092;BME280;67728;53.122;12.776;2023-05-15T07:50:29;100095.56;;;19.30;52.83
31092;BME280;67728;53.122;12.776;2023-05-15T07:52:00;100095.94;;;19.10;52.46
31092;BME280;67728;53.122;12.776;2023-05-15T07:53:33;100098.88;;;18.76;53.75
31092;BME280;67728;53.122;12.776;2023-05-15T07:55:05;100097.19;;;19.75;53.35
31092;BME280;67728;53.122;12.776;2023-05-15T07:56:37;100095.63;;;19.99;51.44
31092;BME280;67728;53.122;12.776;2023-05-15T07:58:09;100098.38;;;20.51;50.40
31092;BME280;67728;53.122;12.776;2023-05-15T07:59:41;100095.81;;;20.23;51.54
31092;BME280;67728;53.122;12.776;2023-05-15T08:01:12;100102.72;;;18.84;55.18